sensor_id;sensor_type;location;lat;lon;timestamp;temperature;humidity
19214;DHT22;9741;51.020;5.304;2023-01-16T00:01:51;6.70;60.10
19214;DHT22;9741;51.020;5.304;2023-01-16T00:04:19;6.70;60.10
19214;DHT22;9741;51.020;5.304;2023-01-16T00:06:47;6.60;60.00
19214;DHT22;9741;51.020;5.304;2023-01-16T00:09:14;6.50;60.00
19214;DHT22;9741;51.020;5.304;2023-01-16T00:11:43;6.40;60.00
19214;DHT22;9741;51.020;5.304;2023-01-16T00:14:10;6.30;60.00
19214;DHT22;9741;51.020;5.304;2023-01-16T00:16:38;6.20;60.10
19214;DHT22;9741;51.020;5.304;2023-01-16T00:19:06;6.10;60.10
19214;DHT22;9741;51.020;5.304;2023-01-16T00:21:34;6.10;60.30
19214;DHT22;9741;51.020;5.304;2023-01-16T00:24:03;6.00;60.30
19214;DHT22;9741;51.020;5.304;2023-01-16T00:26:32;6.00;60.40
19214;DHT22;9741;51.020;5.304;2023-01-16T00:29:02;6.00;60.50
19214;DHT22;9741;51.020;5.304;2023-01-16T00:31:29;5.90;60.40
19214;DHT22;9741;51.020;5.304;2023-01-16T00:33:57;5.90;60.50
19214;DHT22;9741;51.020;5.304;2023-01-16T00:36:25;5.80;60.50
19214;DHT22;9741;51.020;5.304;2023-01-16T00:38:53;5.80;60.60
19214;DHT22;9741;51.020;5.304;2023-01-16T00:41:24;5.70;61.00
19214;DHT22;9741;51.020;5.304;2023-01-16T00:43:52;5.70;60.60
19214;DHT22;9741;51.020;5.304;2023-01-16T00:46:24;5.70;60.80
19214;DHT22;9741;51.020;5.304;2023-01-16T00:48:54;5.70;60.80
19214;DHT22;9741;51.020;5.304;2023-01-16T00:51:21;5.70;60.90
19214;DHT22;9741;51.020;5.304;2023-01-16T00:53:49;5.70;61.10
19214;DHT22;9741;51.020;5.304;2023-01-16T00:56:17;5.70;61.10
19214;DHT22;9741;51.020;5.304;2023-01-16T00:58:45;5.80;61.20
19214;DHT22;9741;51.020;5.304;2023-01-16T01:01:12;5.80;61.20
19214;DHT22;9741;51.020;5.304;2023-01-16T01:03:42;5.80;61.10
19214;DHT22;9741;51.020;5.304;2023-01-16T01:06:10;5.80;61.00
19214;DHT22;9741;51.020;5.304;2023-01-16T01:08:38;5.80;60.90
19214;DHT22;9741;51.020;5.304;2023-01-16T01:11:07;5.80;60.90
19214;DHT22;9741;51.020;5.304;2023-01-16T01:13:36;5.70;60.90
19214;DHT22;9741;51.020;5.304;2023-01-16T01:16:04;5.60;60.90
19214;DHT22;9741;51.020;5.304;2023-01-16T01:18:31;5.50;60.80
19214;DHT22;9741;51.020;5.304;2023-01-16T01:21:01;5.50;60.90
19214;DHT22;9741;51.020;5.304;2023-01-16T01:23:28;5.50;61.10
19214;DHT22;9741;51.020;5.304;2023-01-16T01:25:56;5.40;61.10
19214;DHT22;9741;51.020;5.304;2023-01-16T01:28:24;5.30;61.10
19214;DHT22;9741;51.020;5.304;2023-01-16T01:30:51;5.30;61.10
19214;DHT22;9741;51.020;5.304;2023-01-16T01:33:19;5.20;61.00
19214;DHT22;9741;51.020;5.304;2023-01-16T01:35:47;5.20;61.20
19214;DHT22;9741;51.020;5.304;2023-01-16T01:38:17;5.20;61.30
19214;DHT22;9741;51.020;5.304;2023-01-16T01:40:44;5.10;61.10
19214;DHT22;9741;51.020;5.304;2023-01-16T01:43:13;5.10;61.20
19214;DHT22;9741;51.020;5.304;2023-01-16T01:45:43;5.10;61.40
19214;DHT22;9741;51.020;5.304;2023-01-16T01:48:21;5.10;61.50
19214;DHT22;9741;51.020;5.304;2023-01-16T01:50:52;5.10;61.50
19214;DHT22;9741;51.020;5.304;2023-01-16T01:53:29;5.20;61.70
19214;DHT22;9741;51.020;5.304;2023-01-16T01:56:00;5.20;61.60
19214;DHT22;9741;51.020;5.304;2023-01-16T01:58:29;5.20;61.60
19214;DHT22;9741;51.020;5.304;2023-01-16T02:00:59;5.30;61.70
19214;DHT22;9741;51.020;5.304;2023-01-16T02:03:32;5.30;61.70
19214;DHT22;9741;51.020;5.304;2023-01-16T02:06:02;5.30;61.60
19214;DHT22;9741;51.020;5.304;2023-01-16T02:08:36;5.30;61.60
19214;DHT22;9741;51.020;5.304;2023-01-16T02:11:07;5.30;61.60
19214;DHT22;9741;51.020;5.304;2023-01-16T02:13:37;5.30;61.70
19214;DHT22;9741;51.020;5.304;2023-01-16T02:16:05;5.30;61.80
19214;DHT22;9741;51.020;5.304;2023-01-16T02:18:50;5.30;61.90
19214;DHT22;9741;51.020;5.304;2023-01-16T02:22:14;5.30;61.90
19214;DHT22;9741;51.020;5.304;2023-01-16T02:25:07;5.30;61.90
19214;DHT22;9741;51.020;5.304;2023-01-16T02:27:55;5.30;62.00
19214;DHT22;9741;51.020;5.304;2023-01-16T02:33:34;5.30;62.20
19214;DHT22;9741;51.020;5.304;2023-01-16T02:36:10;5.40;62.20
19214;DHT22;9741;51.020;5.304;2023-01-16T02:38:46;5.30;62.30
19214;DHT22;9741;51.020;5.304;2023-01-16T02:41:24;5.40;62.50
19214;DHT22;9741;51.020;5.304;2023-01-16T02:43:58;5.50;62.70
19214;DHT22;9741;51.020;5.304;2023-01-16T02:46:32;5.60;62.80
19214;DHT22;9741;51.020;5.304;2023-01-16T02:49:10;5.70;62.80
19214;DHT22;9741;51.020;5.304;2023-01-16T02:51:44;5.80;63.20
19214;DHT22;9741;51.020;5.304;2023-01-16T02:54:17;5.90;62.70
19214;DHT22;9741;51.020;5.304;2023-01-16T02:56:50;5.90;62.60
19214;DHT22;9741;51.020;5.304;2023-01-16T02:59:19;6.00;62.70
19214;DHT22;9741;51.020;5.304;2023-01-16T03:01:49;6.00;62.60
19214;DHT22;9741;51.020;5.304;2023-01-16T03:04:47;6.00;62.60
19214;DHT22;9741;51.020;5.304;2023-01-16T03:07:53;6.10;62.70
19214;DHT22;9741;51.020;5.304;2023-01-16T03:10:48;6.10;62.60
19214;DHT22;9741;51.020;5.304;2023-01-16T03:13:28;6.10;62.60
19214;DHT22;9741;51.020;5.304;2023-01-16T03:16:02;6.00;62.50
19214;DHT22;9741;51.020;5.304;2023-01-16T03:18:36;6.10;62.70
19214;DHT22;9741;51.020;5.304;2023-01-16T03:21:12;6.00;62.60
19214;DHT22;9741;51.020;5.304;2023-01-16T03:23:50;6.00;62.70
19214;DHT22;9741;51.020;5.304;2023-01-16T03:26:26;6.10;62.80
19214;DHT22;9741;51.020;5.304;2023-01-16T03:29:03;6.10;62.80
19214;DHT22;9741;51.020;5.304;2023-01-16T03:31:37;6.10;62.80
19214;DHT22;9741;51.020;5.304;2023-01-16T03:34:12;6.20;62.90
19214;DHT22;9741;51.020;5.304;2023-01-16T03:36:46;6.30;62.80
19214;DHT22;9741;51.020;5.304;2023-01-16T03:39:16;6.30;62.70
19214;DHT22;9741;51.020;5.304;2023-01-16T03:41:46;6.30;62.70
19214;DHT22;9741;51.020;5.304;2023-01-16T03:44:21;6.30;62.60
19214;DHT22;9741;51.020;5.304;2023-01-16T03:46:51;6.40;62.70
19214;DHT22;9741;51.020;5.304;2023-01-16T03:49:20;6.40;62.70
19214;DHT22;9741;51.020;5.304;2023-01-16T03:51:53;6.40;62.70
19214;DHT22;9741;51.020;5.304;2023-01-16T03:54:28;6.40;62.70
19214;DHT22;9741;51.020;5.304;2023-01-16T03:57:06;6.50;62.70
19214;DHT22;9741;51.020;5.304;2023-01-16T03:59:35;6.50;62.70
19214;DHT22;9741;51.020;5.304;2023-01-16T04:02:10;6.50;62.70
19214;DHT22;9741;51.020;5.304;2023-01-16T04:04:43;6.50;62.70
19214;DHT22;9741;51.020;5.304;2023-01-16T04:07:18;6.60;62.70
19214;DHT22;9741;51.020;5.304;2023-01-16T04:09:51;6.60;62.60
19214;DHT22;9741;51.020;5.304;2023-01-16T04:12:23;6.70;62.70
19214;DHT22;9741;51.020;5.304;2023-01-16T04:14:55;6.70;62.60
19214;DHT22;9741;51.020;5.304;2023-01-16T04:17:24;6.70;62.50
19214;DHT22;9741;51.020;5.304;2023-01-16T04:19:53;6.70;62.50
19214;DHT22;9741;51.020;5.304;2023-01-16T04:22:24;6.80;62.60
19214;DHT22;9741;51.020;5.304;2023-01-16T04:24:55;6.80;62.50
19214;DHT22;9741;51.020;5.304;2023-01-16T04:27:23;6.80;62.50
19214;DHT22;9741;51.020;5.304;2023-01-16T04:29:51;6.80;62.40
19214;DHT22;9741;51.020;5.304;2023-01-16T04:32:19;6.80;62.40
19214;DHT22;9741;51.020;5.304;2023-01-16T04:34:47;6.80;62.40
19214;DHT22;9741;51.020;5.304;2023-01-16T04:37:15;6.90;62.40
19214;DHT22;9741;51.020;5.304;2023-01-16T04:39:44;6.90;62.40
19214;DHT22;9741;51.020;5.304;2023-01-16T04:42:13;6.90;62.30
19214;DHT22;9741;51.020;5.304;2023-01-16T04:44:41;6.90;62.30
19214;DHT22;9741;51.020;5.304;2023-01-16T04:47:09;6.90;62.30
19214;DHT22;9741;51.020;5.304;2023-01-16T04:49:37;6.90;62.30
19214;DHT22;9741;51.020;5.304;2023-01-16T04:52:05;7.00;62.30
19214;DHT22;9741;51.020;5.304;2023-01-16T04:54:33;7.00;62.30
19214;DHT22;9741;51.020;5.304;2023-01-16T04:57:02;7.00;62.20
19214;DHT22;9741;51.020;5.304;2023-01-16T04:59:30;7.00;62.20
19214;DHT22;9741;51.020;5.304;2023-01-16T05:01:57;7.00;62.20
19214;DHT22;9741;51.020;5.304;2023-01-16T05:04:25;7.10;62.20
19214;DHT22;9741;51.020;5.304;2023-01-16T05:06:52;7.10;62.20
19214;DHT22;9741;51.020;5.304;2023-01-16T05:09:20;7.10;62.10
19214;DHT22;9741;51.020;5.304;2023-01-16T05:11:47;7.10;62.10
19214;DHT22;9741;51.020;5.304;2023-01-16T05:14:16;7.10;62.10
19214;DHT22;9741;51.020;5.304;2023-01-16T05:16:44;7.10;62.00
19214;DHT22;9741;51.020;5.304;2023-01-16T05:19:12;7.10;62.00
19214;DHT22;9741;51.020;5.304;2023-01-16T05:21:40;7.10;62.00
19214;DHT22;9741;51.020;5.304;2023-01-16T05:24:07;7.20;62.00
19214;DHT22;9741;51.020;5.304;2023-01-16T05:26:35;7.20;62.00
19214;DHT22;9741;51.020;5.304;2023-01-16T05:29:03;7.20;61.90
19214;DHT22;9741;51.020;5.304;2023-01-16T05:31:33;7.20;61.90
19214;DHT22;9741;51.020;5.304;2023-01-16T05:34:01;7.20;61.80
19214;DHT22;9741;51.020;5.304;2023-01-16T05:36:29;7.20;61.80
19214;DHT22;9741;51.020;5.304;2023-01-16T05:39:00;7.30;61.80
19214;DHT22;9741;51.020;5.304;2023-01-16T05:41:27;7.30;61.80
19214;DHT22;9741;51.020;5.304;2023-01-16T05:43:56;7.30;61.70
19214;DHT22;9741;51.020;5.304;2023-01-16T05:46:24;7.30;61.60
19214;DHT22;9741;51.020;5.304;2023-01-16T05:48:53;7.30;61.60
19214;DHT22;9741;51.020;5.304;2023-01-16T05:51:21;7.40;61.60
19214;DHT22;9741;51.020;5.304;2023-01-16T05:53:49;7.40;61.50
19214;DHT22;9741;51.020;5.304;2023-01-16T05:56:20;7.40;61.50
19214;DHT22;9741;51.020;5.304;2023-01-16T05:58:51;7.50;61.50
19214;DHT22;9741;51.020;5.304;2023-01-16T06:01:19;7.50;61.40
19214;DHT22;9741;51.020;5.304;2023-01-16T06:03:47;7.40;61.30
19214;DHT22;9741;51.020;5.304;2023-01-16T06:06:16;7.40;61.20
19214;DHT22;9741;51.020;5.304;2023-01-16T06:08:45;7.40;61.20
19214;DHT22;9741;51.020;5.304;2023-01-16T06:11:13;7.40;61.30
19214;DHT22;9741;51.020;5.304;2023-01-16T06:13:41;7.40;61.30
19214;DHT22;9741;51.020;5.304;2023-01-16T06:16:09;7.30;61.30
19214;DHT22;9741;51.020;5.304;2023-01-16T06:18:37;7.30;61.30
19214;DHT22;9741;51.020;5.304;2023-01-16T06:21:05;7.20;61.30
19214;DHT22;9741;51.020;5.304;2023-01-16T06:23:34;7.20;61.40
19214;DHT22;9741;51.020;5.304;2023-01-16T06:26:02;7.20;61.50
19214;DHT22;9741;51.020;5.304;2023-01-16T06:28:32;7.10;61.50
19214;DHT22;9741;51.020;5.304;2023-01-16T06:31:00;7.10;61.70
19214;DHT22;9741;51.020;5.304;2023-01-16T06:33:28;7.10;61.80
19214;DHT22;9741;51.020;5.304;2023-01-16T06:35:56;7.00;61.70
19214;DHT22;9741;51.020;5.304;2023-01-16T06:38:23;7.00;61.80
19214;DHT22;9741;51.020;5.304;2023-01-16T06:40:52;7.00;61.90
19214;DHT22;9741;51.020;5.304;2023-01-16T06:43:23;7.00;62.00
19214;DHT22;9741;51.020;5.304;2023-01-16T06:45:51;7.00;62.10
19214;DHT22;9741;51.020;5.304;2023-01-16T06:48:19;7.00;62.20
19214;DHT22;9741;51.020;5.304;2023-01-16T06:50:47;7.00;62.20
19214;DHT22;9741;51.020;5.304;2023-01-16T06:53:15;6.90;62.60
19214;DHT22;9741;51.020;5.304;2023-01-16T06:55:43;6.90;62.30
19214;DHT22;9741;51.020;5.304;2023-01-16T06:58:12;6.90;62.40
19214;DHT22;9741;51.020;5.304;2023-01-16T07:00:40;6.90;62.40
19214;DHT22;9741;51.020;5.304;2023-01-16T07:03:09;6.90;62.50
19214;DHT22;9741;51.020;5.304;2023-01-16T07:05:37;7.00;62.70
19214;DHT22;9741;51.020;5.304;2023-01-16T07:08:05;6.90;62.60
19214;DHT22;9741;51.020;5.304;2023-01-16T07:10:33;7.00;62.70
19214;DHT22;9741;51.020;5.304;2023-01-16T07:13:01;7.00;62.80
19214;DHT22;9741;51.020;5.304;2023-01-16T07:15:30;7.00;62.80
19214;DHT22;9741;51.020;5.304;2023-01-16T07:18:16;7.00;62.80
19214;DHT22;9741;51.020;5.304;2023-01-16T07:21:03;7.00;62.90
19214;DHT22;9741;51.020;5.304;2023-01-16T07:23:50;7.00;62.90
19214;DHT22;9741;51.020;5.304;2023-01-16T07:26:21;7.00;62.90
19214;DHT22;9741;51.020;5.304;2023-01-16T07:28:51;7.00;63.00
19214;DHT22;9741;51.020;5.304;2023-01-16T07:31:21;7.00;63.00
19214;DHT22;9741;51.020;5.304;2023-01-16T07:33:49;7.00;63.00
19214;DHT22;9741;51.020;5.304;2023-01-16T07:36:16;7.00;63.00
19214;DHT22;9741;51.020;5.304;2023-01-16T07:38:44;7.00;63.10
19214;DHT22;9741;51.020;5.304;2023-01-16T07:41:12;7.00;63.10
19214;DHT22;9741;51.020;5.304;2023-01-16T07:43:40;7.00;63.10
19214;DHT22;9741;51.020;5.304;2023-01-16T07:46:08;7.00;63.10
19214;DHT22;9741;51.020;5.304;2023-01-16T07:48:37;7.00;63.10
19214;DHT22;9741;51.020;5.304;2023-01-16T07:51:05;7.00;63.10
19214;DHT22;9741;51.020;5.304;2023-01-16T07:53:33;7.10;63.20
19214;DHT22;9741;51.020;5.304;2023-01-16T07:56:01;7.10;63.10
19214;DHT22;9741;51.020;5.304;2023-01-16T07:58:29;7.10;63.00
19214;DHT22;9741;51.020;5.304;2023-01-16T08:00:57;7.10;63.00
19214;DHT22;9741;51.020;5.304;2023-01-16T08:03:25;7.10;63.00
19214;DHT22;9741;51.020;5.304;2023-01-16T08:05:56;7.10;62.90
19214;DHT22;9741;51.020;5.304;2023-01-16T08:08:25;7.10;62.90
19214;DHT22;9741;51.020;5.304;2023-01-16T08:10:54;7.00;62.80
19214;DHT22;9741;51.020;5.304;2023-01-16T08:13:22;7.00;62.80
19214;DHT22;9741;51.020;5.304;2023-01-16T08:15:49;7.00;62.80
19214;DHT22;9741;51.020;5.304;2023-01-16T08:18:18;7.00;62.80
19214;DHT22;9741;51.020;5.304;2023-01-16T08:20:46;7.00;62.80
19214;DHT22;9741;51.020;5.304;2023-01-16T08:23:17;7.00;62.70
19214;DHT22;9741;51.020;5.304;2023-01-16T08:25:49;6.90;62.60
19214;DHT22;9741;51.020;5.304;2023-01-16T08:28:17;6.90;62.50
19214;DHT22;9741;51.020;5.304;2023-01-16T08:30:45;6.90;62.50
19214;DHT22;9741;51.020;5.304;2023-01-16T08:33:13;6.90;62.40
19214;DHT22;9741;51.020;5.304;2023-01-16T08:35:41;6.90;62.30
19214;DHT22;9741;51.020;5.304;2023-01-16T08:38:09;6.90;62.20
19214;DHT22;9741;51.020;5.304;2023-01-16T08:40:38;6.90;62.20
19214;DHT22;9741;51.020;5.304;2023-01-16T08:43:06;7.00;62.20
19214;DHT22;9741;51.020;5.304;2023-01-16T08:45:52;7.00;62.10
19214;DHT22;9741;51.020;5.304;2023-01-16T08:48:50;7.00;62.00
19214;DHT22;9741;51.020;5.304;2023-01-16T08:51:35;7.00;62.00
19214;DHT22;9741;51.020;5.304;2023-01-16T08:54:04;7.00;61.80
19214;DHT22;9741;51.020;5.304;2023-01-16T08:56:32;7.00;61.80
19214;DHT22;9741;51.020;5.304;2023-01-16T08:59:01;7.00;61.70
19214;DHT22;9741;51.020;5.304;2023-01-16T09:01:28;7.00;61.60
19214;DHT22;9741;51.020;5.304;2023-01-16T09:03:56;7.00;61.50
19214;DHT22;9741;51.020;5.304;2023-01-16T09:06:24;7.10;61.60
19214;DHT22;9741;51.020;5.304;2023-01-16T09:08:52;7.00;61.40
19214;DHT22;9741;51.020;5.304;2023-01-16T09:11:20;7.10;61.40
19214;DHT22;9741;51.020;5.304;2023-01-16T09:14:06;7.10;61.30
19214;DHT22;9741;51.020;5.304;2023-01-16T09:16:34;7.10;61.20
19214;DHT22;9741;51.020;5.304;2023-01-16T09:19:02;7.10;61.20
19214;DHT22;9741;51.020;5.304;2023-01-16T09:21:30;7.10;61.20
19214;DHT22;9741;51.020;5.304;2023-01-16T09:23:57;7.20;61.30
19214;DHT22;9741;51.020;5.304;2023-01-16T09:26:25;7.20;61.10
19214;DHT22;9741;51.020;5.304;2023-01-16T09:28:52;7.20;61.10
19214;DHT22;9741;51.020;5.304;2023-01-16T09:31:21;7.30;61.10
19214;DHT22;9741;51.020;5.304;2023-01-16T09:33:48;7.30;61.10
19214;DHT22;9741;51.020;5.304;2023-01-16T09:36:17;7.40;61.00
19214;DHT22;9741;51.020;5.304;2023-01-16T09:38:46;7.50;61.00
19214;DHT22;9741;51.020;5.304;2023-01-16T09:41:15;7.50;60.80
19214;DHT22;9741;51.020;5.304;2023-01-16T09:44:08;7.50;60.70
19214;DHT22;9741;51.020;5.304;2023-01-16T09:46:40;7.50;60.50
19214;DHT22;9741;51.020;5.304;2023-01-16T09:49:15;7.40;60.40
19214;DHT22;9741;51.020;5.304;2023-01-16T09:51:49;7.40;60.40
19214;DHT22;9741;51.020;5.304;2023-01-16T09:54:35;7.40;60.50
19214;DHT22;9741;51.020;5.304;2023-01-16T09:57:33;7.40;60.60
19214;DHT22;9741;51.020;5.304;2023-01-16T10:00:20;7.40;60.60
19214;DHT22;9741;51.020;5.304;2023-01-16T10:02:50;7.50;60.70
19214;DHT22;9741;51.020;5.304;2023-01-16T10:05:18;7.60;60.80
19214;DHT22;9741;51.020;5.304;2023-01-16T10:07:49;7.60;60.60
19214;DHT22;9741;51.020;5.304;2023-01-16T10:10:28;7.70;60.50
19214;DHT22;9741;51.020;5.304;2023-01-16T10:13:08;7.70;60.50
19214;DHT22;9741;51.020;5.304;2023-01-16T10:15:41;7.70;60.50
19214;DHT22;9741;51.020;5.304;2023-01-16T10:18:23;7.70;60.50
19214;DHT22;9741;51.020;5.304;2023-01-16T10:21:01;7.80;60.60
19214;DHT22;9741;51.020;5.304;2023-01-16T10:23:43;7.90;60.60
19214;DHT22;9741;51.020;5.304;2023-01-16T10:26:19;8.00;60.60
19214;DHT22;9741;51.020;5.304;2023-01-16T10:28:57;8.10;60.50
19214;DHT22;9741;51.020;5.304;2023-01-16T10:31:29;8.20;60.50
19214;DHT22;9741;51.020;5.304;2023-01-16T10:34:05;8.30;60.50
19214;DHT22;9741;51.020;5.304;2023-01-16T10:36:40;8.40;60.40
19214;DHT22;9741;51.020;5.304;2023-01-16T10:39:11;8.60;60.40
19214;DHT22;9741;51.020;5.304;2023-01-16T10:41:46;8.80;60.40
19214;DHT22;9741;51.020;5.304;2023-01-16T10:44:34;9.00;60.30
19214;DHT22;9741;51.020;5.304;2023-01-16T10:47:22;9.10;60.00
19214;DHT22;9741;51.020;5.304;2023-01-16T10:50:10;9.10;59.50
19214;DHT22;9741;51.020;5.304;2023-01-16T10:52:38;9.20;60.00
19214;DHT22;9741;51.020;5.304;2023-01-16T10:55:08;9.20;59.40
19214;DHT22;9741;51.020;5.304;2023-01-16T10:57:43;9.30;59.40
19214;DHT22;9741;51.020;5.304;2023-01-16T11:00:16;9.40;59.20
19214;DHT22;9741;51.020;5.304;2023-01-16T11:02:47;9.50;59.10
19214;DHT22;9741;51.020;5.304;2023-01-16T11:05:36;9.40;58.80
19214;DHT22;9741;51.020;5.304;2023-01-16T11:08:09;9.40;58.60
19214;DHT22;9741;51.020;5.304;2023-01-16T11:10:38;9.30;58.40
19214;DHT22;9741;51.020;5.304;2023-01-16T11:13:12;9.20;58.40
19214;DHT22;9741;51.020;5.304;2023-01-16T11:16:02;9.10;58.40
19214;DHT22;9741;51.020;5.304;2023-01-16T11:18:46;9.10;58.50
19214;DHT22;9741;51.020;5.304;2023-01-16T11:21:22;9.00;58.40
19214;DHT22;9741;51.020;5.304;2023-01-16T11:23:58;9.00;58.40
19214;DHT22;9741;51.020;5.304;2023-01-16T11:26:26;9.00;58.30
19214;DHT22;9741;51.020;5.304;2023-01-16T11:28:56;9.00;58.20
19214;DHT22;9741;51.020;5.304;2023-01-16T11:31:27;9.10;58.40
19214;DHT22;9741;51.020;5.304;2023-01-16T11:33:58;9.20;58.30
19214;DHT22;9741;51.020;5.304;2023-01-16T11:36:32;9.20;58.20
19214;DHT22;9741;51.020;5.304;2023-01-16T11:39:01;9.20;58.10
19214;DHT22;9741;51.020;5.304;2023-01-16T11:41:31;9.20;57.90
19214;DHT22;9741;51.020;5.304;2023-01-16T11:44:13;9.30;57.80
19214;DHT22;9741;51.020;5.304;2023-01-16T11:46:59;9.30;57.80
19214;DHT22;9741;51.020;5.304;2023-01-16T11:49:33;9.30;57.80
19214;DHT22;9741;51.020;5.304;2023-01-16T11:52:02;9.40;57.80
19214;DHT22;9741;51.020;5.304;2023-01-16T11:54:32;9.40;57.70
19214;DHT22;9741;51.020;5.304;2023-01-16T11:57:09;9.50;57.70
19214;DHT22;9741;51.020;5.304;2023-01-16T11:59:55;9.50;57.70
19214;DHT22;9741;51.020;5.304;2023-01-16T12:03:03;9.70;57.80
19214;DHT22;9741;51.020;5.304;2023-01-16T12:05:48;9.80;57.60
19214;DHT22;9741;51.020;5.304;2023-01-16T12:08:43;9.80;57.30
19214;DHT22;9741;51.020;5.304;2023-01-16T12:11:15;9.90;57.20
19214;DHT22;9741;51.020;5.304;2023-01-16T12:13:52;9.80;57.10
19214;DHT22;9741;51.020;5.304;2023-01-16T12:16:50;9.70;57.00
19214;DHT22;9741;51.020;5.304;2023-01-16T12:22:23;9.50;57.00
19214;DHT22;9741;51.020;5.304;2023-01-16T12:25:03;9.50;57.10
19214;DHT22;9741;51.020;5.304;2023-01-16T12:27:39;9.50;57.30
19214;DHT22;9741;51.020;5.304;2023-01-16T12:30:19;9.60;57.40
19214;DHT22;9741;51.020;5.304;2023-01-16T12:33:00;9.60;57.30
19214;DHT22;9741;51.020;5.304;2023-01-16T12:35:43;9.70;57.90
19214;DHT22;9741;51.020;5.304;2023-01-16T12:38:15;9.80;57.30
19214;DHT22;9741;51.020;5.304;2023-01-16T12:41:16;9.80;57.10
19214;DHT22;9741;51.020;5.304;2023-01-16T12:44:12;9.80;57.00
19214;DHT22;9741;51.020;5.304;2023-01-16T12:46:45;9.80;56.80
19214;DHT22;9741;51.020;5.304;2023-01-16T12:49:29;9.80;56.60
19214;DHT22;9741;51.020;5.304;2023-01-16T12:52:10;9.70;56.40
19214;DHT22;9741;51.020;5.304;2023-01-16T12:54:58;9.70;56.50
19214;DHT22;9741;51.020;5.304;2023-01-16T12:57:47;9.60;56.50
19214;DHT22;9741;51.020;5.304;2023-01-16T13:00:17;9.50;56.60
19214;DHT22;9741;51.020;5.304;2023-01-16T13:02:51;9.50;56.70
19214;DHT22;9741;51.020;5.304;2023-01-16T13:05:23;9.50;56.80
19214;DHT22;9741;51.020;5.304;2023-01-16T13:07:55;9.60;57.00
19214;DHT22;9741;51.020;5.304;2023-01-16T13:10:28;9.70;57.00
19214;DHT22;9741;51.020;5.304;2023-01-16T13:13:18;9.70;56.90
19214;DHT22;9741;51.020;5.304;2023-01-16T13:15:52;9.70;56.80
19214;DHT22;9741;51.020;5.304;2023-01-16T13:18:27;9.80;56.90
19214;DHT22;9741;51.020;5.304;2023-01-16T13:20:59;9.80;56.80
19214;DHT22;9741;51.020;5.304;2023-01-16T13:23:32;9.70;56.70
19214;DHT22;9741;51.020;5.304;2023-01-16T13:26:02;9.70;56.60
19214;DHT22;9741;51.020;5.304;2023-01-16T13:28:39;9.60;56.60
19214;DHT22;9741;51.020;5.304;2023-01-16T13:31:16;9.50;56.60
19214;DHT22;9741;51.020;5.304;2023-01-16T13:33:49;9.40;56.70
19214;DHT22;9741;51.020;5.304;2023-01-16T13:42:22;9.20;56.90
19214;DHT22;9741;51.020;5.304;2023-01-16T13:44:55;9.20;57.00
19214;DHT22;9741;51.020;5.304;2023-01-16T13:47:42;9.20;57.10
19214;DHT22;9741;51.020;5.304;2023-01-16T13:50:18;9.20;57.20
19214;DHT22;9741;51.020;5.304;2023-01-16T13:52:46;9.20;57.20
19214;DHT22;9741;51.020;5.304;2023-01-16T13:55:26;9.30;57.30
19214;DHT22;9741;51.020;5.304;2023-01-16T13:58:05;9.20;57.20
19214;DHT22;9741;51.020;5.304;2023-01-16T14:00:36;9.20;57.20
19214;DHT22;9741;51.020;5.304;2023-01-16T14:03:25;9.20;57.20
19214;DHT22;9741;51.020;5.304;2023-01-16T14:05:54;9.20;57.20
19214;DHT22;9741;51.020;5.304;2023-01-16T14:08:50;9.10;57.20
19214;DHT22;9741;51.020;5.304;2023-01-16T14:11:40;9.00;57.30
19214;DHT22;9741;51.020;5.304;2023-01-16T14:14:31;9.00;57.40
19214;DHT22;9741;51.020;5.304;2023-01-16T14:17:19;9.00;57.50
19214;DHT22;9741;51.020;5.304;2023-01-16T14:19:53;8.90;57.50
19214;DHT22;9741;51.020;5.304;2023-01-16T14:22:22;8.90;57.60
19214;DHT22;9741;51.020;5.304;2023-01-16T14:25:17;8.80;57.70
19214;DHT22;9741;51.020;5.304;2023-01-16T14:27:50;8.80;57.70
19214;DHT22;9741;51.020;5.304;2023-01-16T14:30:20;8.70;57.70
19214;DHT22;9741;51.020;5.304;2023-01-16T14:32:53;8.70;57.80
19214;DHT22;9741;51.020;5.304;2023-01-16T14:35:25;8.70;57.90
19214;DHT22;9741;51.020;5.304;2023-01-16T14:37:57;8.60;57.70
19214;DHT22;9741;51.020;5.304;2023-01-16T14:40:28;8.60;57.80
19214;DHT22;9741;51.020;5.304;2023-01-16T14:43:28;8.60;57.90
19214;DHT22;9741;51.020;5.304;2023-01-16T14:46:24;8.60;57.90
19214;DHT22;9741;51.020;5.304;2023-01-16T14:49:43;8.60;57.90
19214;DHT22;9741;51.020;5.304;2023-01-16T14:52:46;8.50;57.90
19214;DHT22;9741;51.020;5.304;2023-01-16T14:55:42;8.40;57.90
19214;DHT22;9741;51.020;5.304;2023-01-16T14:58:16;8.40;58.00
19214;DHT22;9741;51.020;5.304;2023-01-16T15:00:48;8.40;58.20
19214;DHT22;9741;51.020;5.304;2023-01-16T15:03:21;8.40;58.30
19214;DHT22;9741;51.020;5.304;2023-01-16T15:05:56;8.30;58.20
19214;DHT22;9741;51.020;5.304;2023-01-16T15:08:32;8.20;58.30
19214;DHT22;9741;51.020;5.304;2023-01-16T15:11:07;8.20;58.40
19214;DHT22;9741;51.020;5.304;2023-01-16T15:14:11;8.20;58.60
19214;DHT22;9741;51.020;5.304;2023-01-16T15:17:13;8.20;58.60
19214;DHT22;9741;51.020;5.304;2023-01-16T15:23:05;8.20;58.70
19214;DHT22;9741;51.020;5.304;2023-01-16T15:26:04;8.20;58.70
19214;DHT22;9741;51.020;5.304;2023-01-16T15:28:38;8.10;58.80
19214;DHT22;9741;51.020;5.304;2023-01-16T15:31:13;8.10;58.80
19214;DHT22;9741;51.020;5.304;2023-01-16T15:33:41;8.10;58.90
19214;DHT22;9741;51.020;5.304;2023-01-16T15:36:21;8.10;58.90
19214;DHT22;9741;51.020;5.304;2023-01-16T15:38:54;8.10;59.00
19214;DHT22;9741;51.020;5.304;2023-01-16T15:41:25;8.10;59.00
19214;DHT22;9741;51.020;5.304;2023-01-16T15:44:13;8.10;59.10
19214;DHT22;9741;51.020;5.304;2023-01-16T15:47:28;8.00;59.10
19214;DHT22;9741;51.020;5.304;2023-01-16T15:50:06;8.00;59.20
19214;DHT22;9741;51.020;5.304;2023-01-16T15:52:35;8.00;59.20
19214;DHT22;9741;51.020;5.304;2023-01-16T15:55:11;7.90;59.20
19214;DHT22;9741;51.020;5.304;2023-01-16T15:57:43;7.90;59.40
19214;DHT22;9741;51.020;5.304;2023-01-16T16:00:27;7.90;59.40
19214;DHT22;9741;51.020;5.304;2023-01-16T16:03:02;7.90;59.50
19214;DHT22;9741;51.020;5.304;2023-01-16T16:05:32;7.90;59.50
19214;DHT22;9741;51.020;5.304;2023-01-16T16:08:00;7.90;59.50
19214;DHT22;9741;51.020;5.304;2023-01-16T16:10:29;7.90;59.70
19214;DHT22;9741;51.020;5.304;2023-01-16T16:13:16;7.90;59.70
19214;DHT22;9741;51.020;5.304;2023-01-16T16:15:59;7.80;59.70
19214;DHT22;9741;51.020;5.304;2023-01-16T16:18:53;7.90;60.40
19214;DHT22;9741;51.020;5.304;2023-01-16T16:21:21;7.80;59.80
19214;DHT22;9741;51.020;5.304;2023-01-16T16:23:55;7.80;59.90
19214;DHT22;9741;51.020;5.304;2023-01-16T16:26:26;7.80;60.00
19214;DHT22;9741;51.020;5.304;2023-01-16T16:28:54;7.80;60.00
19214;DHT22;9741;51.020;5.304;2023-01-16T16:31:28;7.80;60.10
19214;DHT22;9741;51.020;5.304;2023-01-16T16:33:59;7.80;60.10
19214;DHT22;9741;51.020;5.304;2023-01-16T16:36:28;7.80;60.20
19214;DHT22;9741;51.020;5.304;2023-01-16T16:38:56;7.90;60.30
19214;DHT22;9741;51.020;5.304;2023-01-16T16:41:45;7.80;60.30
19214;DHT22;9741;51.020;5.304;2023-01-16T16:44:39;7.90;60.40
19214;DHT22;9741;51.020;5.304;2023-01-16T16:47:24;7.90;60.50
19214;DHT22;9741;51.020;5.304;2023-01-16T16:49:52;7.80;60.50
19214;DHT22;9741;51.020;5.304;2023-01-16T16:52:22;7.80;60.50
19214;DHT22;9741;51.020;5.304;2023-01-16T16:54:52;7.80;60.60
19214;DHT22;9741;51.020;5.304;2023-01-16T16:57:22;7.80;60.60
19214;DHT22;9741;51.020;5.304;2023-01-16T16:59:51;7.70;60.60
19214;DHT22;9741;51.020;5.304;2023-01-16T17:02:19;7.80;60.80